Time;durP1;ratioP1;P1;durP2;ratioP2;P2;SDS_P1;SDS_P2;PMS_P1;PMS_P2;Temp;Humidity;BMP_temperature;BMP_pressure;BME280_temperature;BME280_humidity;BME280_pressure;Samples;Min_cycle;Max_cycle;Signal;HPM_P1;HPM_P2
2022/07/06 00:04:14;;;;;;;4.85;3.17;;;;;;;;;;10234472;28;20100;-65
2022/07/06 00:09:12;;;;;;;3.63;2.88;;;;;;;;;;10249375;28;20074;-65
2022/07/06 00:14:12;;;;;;;4.88;3.40;;;;;;;;;;10254405;28;20073;-64
2022/07/06 00:19:10;;;;;;;6.38;3.30;;;;;;;;;;10254421;28;20111;-64
2022/07/06 00:24:09;;;;;;;5.15;3.60;;;;;;;;;;10253495;28;20565;-64
2022/07/06 00:29:07;;;;;;;4.95;3.03;;;;;;;;;;10253048;28;20069;-64
2022/07/06 00:34:07;;;;;;;7.10;3.13;;;;;;;;;;10238937;28;20073;-65
2022/07/06 00:39:05;;;;;;;4.93;2.90;;;;;;;;;;10241058;28;20171;-66
2022/07/06 00:44:07;;;;;;;3.40;2.83;;;;;;;;;;10252965;28;20060;-65
2022/07/06 00:50:13;;;;;;;6.55;3.30;;;;;;;;;;10252424;28;20069;-65
2022/07/06 00:54:27;;;;;;;8.45;4.20;;;;;;;;;;10252788;28;20073;-65
2022/07/06 00:59:26;;;;;;;7.90;5.15;;;;;;;;;;10252694;28;20065;-65
2022/07/06 01:04:26;;;;;;;7.10;5.57;;;;;;;;;;10252573;28;20075;-66
2022/07/06 01:09:24;;;;;;;12.52;6.90;;;;;;;;;;10251804;28;20526;-65
2022/07/06 01:14:23;;;;;;;16.52;6.45;;;;;;;;;;10251982;28;20072;-65
2022/07/06 01:19:22;;;;;;;14.98;7.60;;;;;;;;;;10249113;28;20050;-65
2022/07/06 01:24:22;;;;;;;8.38;7.53;;;;;;;;;;10249169;28;20426;-65
2022/07/06 01:29:20;;;;;;;12.48;7.65;;;;;;;;;;10248856;28;20081;-64
2022/07/06 01:34:18;;;;;;;10.40;6.75;;;;;;;;;;10251195;28;20069;-64
2022/07/06 01:39:17;;;;;;;10.13;7.10;;;;;;;;;;10236797;28;20506;-65
2022/07/06 01:44:17;;;;;;;14.40;6.47;;;;;;;;;;10238316;28;20103;-65
2022/07/06 01:49:15;;;;;;;8.18;6.68;;;;;;;;;;10236421;28;20099;-65
2022/07/06 01:54:13;;;;;;;10.15;6.53;;;;;;;;;;10251317;28;20068;-65
2022/07/06 01:59:12;;;;;;;6.78;6.07;;;;;;;;;;10248347;28;20053;-69
2022/07/06 02:04:12;;;;;;;10.02;7.15;;;;;;;;;;10246215;28;20084;-69
2022/07/06 02:09:11;;;;;;;7.45;6.50;;;;;;;;;;10248282;28;20686;-68
2022/07/06 02:14:09;;;;;;;10.32;7.20;;;;;;;;;;10248343;28;20452;-68
2022/07/06 02:19:12;;;;;;;11.48;6.93;;;;;;;;;;10248550;28;20089;-68
2022/07/06 02:24:10;;;;;;;7.35;6.75;;;;;;;;;;10249493;28;20077;-68
2022/07/06 02:29:09;;;;;;;10.48;7.45;;;;;;;;;;10248138;28;20152;-68
2022/07/06 02:34:09;;;;;;;9.38;7.00;;;;;;;;;;10247593;28;20045;-68
2022/07/06 02:39:08;;;;;;;8.70;7.85;;;;;;;;;;10247093;28;20083;-69
2022/07/06 02:44:07;;;;;;;8.60;7.72;;;;;;;;;;10248783;28;20064;-69
2022/07/06 02:49:05;;;;;;;8.68;7.47;;;;;;;;;;10246382;28;20045;-69
2022/07/06 02:54:04;;;;;;;8.80;7.50;;;;;;;;;;10248031;28;20407;-69
2022/07/06 02:59:03;;;;;;;9.00;7.10;;;;;;;;;;10244952;28;20053;-68
2022/07/06 03:04:06;;;;;;;7.55;6.85;;;;;;;;;;10247550;28;20479;-68
2022/07/06 03:09:05;;;;;;;8.27;7.47;;;;;;;;;;10247572;28;20100;-69
2022/07/06 03:14:06;;;;;;;8.15;6.82;;;;;;;;;;10246114;28;20081;-69
2022/07/06 03:19:07;;;;;;;9.20;8.38;;;;;;;;;;10245235;28;20049;-68
2022/07/06 03:24:06;;;;;;;13.82;8.13;;;;;;;;;;10246511;28;20049;-69
2022/07/06 03:29:05;;;;;;;8.57;7.78;;;;;;;;;;10244487;28;20081;-68
2022/07/06 03:34:04;;;;;;;8.90;7.97;;;;;;;;;;10247337;28;20072;-68
2022/07/06 03:39:02;;;;;;;10.57;8.93;;;;;;;;;;10248142;28;20052;-69
2022/07/06 03:44:02;;;;;;;9.60;8.70;;;;;;;;;;10254119;28;20545;-69
2022/07/06 03:49:02;;;;;;;10.02;8.55;;;;;;;;;;10253217;28;20088;-68
2022/07/06 03:54:01;;;;;;;10.30;8.85;;;;;;;;;;10252594;28;20045;-69
2022/07/06 03:59:01;;;;;;;9.20;8.40;;;;;;;;;;10253712;28;20045;-69
2022/07/06 04:04:04;;;;;;;11.70;8.77;;;;;;;;;;10256862;28;20052;-69
2022/07/06 04:09:05;;;;;;;9.77;8.82;;;;;;;;;;10252527;28;20056;-69
2022/07/06 04:14:04;;;;;;;11.90;8.80;;;;;;;;;;10251943;28;20049;-67
2022/07/06 04:19:05;;;;;;;10.15;8.82;;;;;;;;;;10252644;28;20049;-69
2022/07/06 04:24:05;;;;;;;15.63;9.23;;;;;;;;;;10251192;28;20091;-69
2022/07/06 04:29:04;;;;;;;12.95;11.00;;;;;;;;;;10250439;28;20072;-67
2022/07/06 04:34:05;;;;;;;9.60;8.70;;;;;;;;;;10251833;28;20042;-68
2022/07/06 04:39:04;;;;;;;10.18;9.27;;;;;;;;;;10251443;28;20052;-67
2022/07/06 04:44:02;;;;;;;16.30;11.10;;;;;;;;;;10249847;28;20056;-69
2022/07/06 04:49:01;;;;;;;12.52;11.25;;;;;;;;;;10240720;28;20171;-67
2022/07/06 04:54:04;;;;;;;12.73;10.88;;;;;;;;;;10236028;28;20085;-68
2022/07/06 04:59:04;;;;;;;11.23;10.13;;;;;;;;;;10244444;28;20470;-68
2022/07/06 05:04:03;;;;;;;11.57;9.77;;;;;;;;;;10245435;28;20087;-68
2022/07/06 05:09:03;;;;;;;11.27;10.18;;;;;;;;;;10236293;28;20081;-68
2022/07/06 05:14:03;;;;;;;11.73;9.85;;;;;;;;;;10234781;28;20478;-68
2022/07/06 05:19:01;;;;;;;11.38;9.50;;;;;;;;;;10234856;28;20037;-68
2022/07/06 05:24:00;;;;;;;10.23;9.18;;;;;;;;;;10236784;28;20502;-68
2022/07/06 05:29:00;;;;;;;12.98;8.60;;;;;;;;;;10238804;28;20456;-68
2022/07/06 05:33:58;;;;;;;14.15;9.18;;;;;;;;;;10235727;28;20093;-68
2022/07/06 05:38:58;;;;;;;9.73;8.82;;;;;;;;;;10240960;28;20041;-68
2022/07/06 05:43:56;;;;;;;12.73;9.82;;;;;;;;;;10235533;28;20073;-68
2022/07/06 05:54:12;;;;;;;9.93;8.40;;;;;;;;;;10237055;28;20507;-68
2022/07/06 05:59:11;;;;;;;14.93;9.00;;;;;;;;;;10233811;28;20069;-69
2022/07/06 06:04:12;;;;;;;9.65;7.78;;;;;;;;;;10236044;28;20076;-68
2022/07/06 06:09:10;;;;;;;12.52;8.57;;;;;;;;;;10233975;28;20357;-68
2022/07/06 06:14:08;;;;;;;12.32;8.48;;;;;;;;;;10252376;28;20072;-69
2022/07/06 06:19:07;;;;;;;9.30;8.25;;;;;;;;;;10235029;28;20073;-68
2022/07/06 06:24:07;;;;;;;10.10;7.55;;;;;;;;;;10246170;28;20518;-68
2022/07/06 06:29:05;;;;;;;11.07;9.65;;;;;;;;;;10243396;28;20513;-68
2022/07/06 06:34:04;;;;;;;12.18;7.78;;;;;;;;;;10247409;28;20073;-68
2022/07/06 06:39:02;;;;;;;8.10;7.35;;;;;;;;;;10249067;28;20526;-68
2022/07/06 06:44:02;;;;;;;7.90;7.25;;;;;;;;;;10247957;28;20085;-69
2022/07/06 06:49:09;;;;;;;9.32;7.55;;;;;;;;;;10248132;28;20148;-68
2022/07/06 06:54:07;;;;;;;9.70;7.07;;;;;;;;;;10246987;28;20081;-68
2022/07/06 06:59:07;;;;;;;8.27;7.47;;;;;;;;;;10247346;28;20073;-68
2022/07/06 07:04:15;;;;;;;10.23;8.05;;;;;;;;;;10248067;28;20060;-68
2022/07/06 07:09:14;;;;;;;23.35;9.63;;;;;;;;;;10241263;28;20476;-68
2022/07/06 07:14:13;;;;;;;9.82;7.90;;;;;;;;;;10247180;28;20073;-69
2022/07/06 07:19:12;;;;;;;13.15;7.50;;;;;;;;;;10247132;28;20460;-69
2022/07/06 07:24:10;;;;;;;8.30;7.57;;;;;;;;;;10246590;28;20501;-68
2022/07/06 07:29:09;;;;;;;8.38;7.50;;;;;;;;;;10246779;28;20423;-68
2022/07/06 07:34:09;;;;;;;11.02;7.45;;;;;;;;;;10247031;28;20084;-69
2022/07/06 07:39:07;;;;;;;7.60;6.78;;;;;;;;;;10247497;28;20462;-68
2022/07/06 07:44:06;;;;;;;7.93;7.15;;;;;;;;;;10247134;28;20069;-68
2022/07/06 07:49:04;;;;;;;7.82;7.00;;;;;;;;;;10246986;28;20041;-69
2022/07/06 07:54:06;;;;;;;7.72;6.95;;;;;;;;;;10244473;28;20315;-69
2022/07/06 07:59:05;;;;;;;11.73;7.95;;;;;;;;;;10247421;28;20073;-69
2022/07/06 08:04:04;;;;;;;11.25;6.70;;;;;;;;;;10241338;28;20053;-69
2022/07/06 08:09:03;;;;;;;7.60;6.90;;;;;;;;;;10247375;28;20088;-69
2022/07/06 08:14:03;;;;;;;7.75;6.88;;;;;;;;;;10246782;28;20087;-69
2022/07/06 08:19:01;;;;;;;9.75;7.85;;;;;;;;;;10247162;28;20498;-69
2022/07/06 08:24:08;;;;;;;7.10;6.40;;;;;;;;;;10244325;28;20058;-68
2022/07/06 08:29:07;;;;;;;7.25;6.35;;;;;;;;;;10253378;28;20072;-68
2022/07/06 08:34:06;;;;;;;6.32;5.70;;;;;;;;;;10254438;28;20093;-69
2022/07/06 08:39:04;;;;;;;6.47;5.88;;;;;;;;;;10252932;28;20533;-67
2022/07/06 08:44:03;;;;;;;7.05;5.68;;;;;;;;;;10253613;28;20076;-68
2022/07/06 08:49:02;;;;;;;9.18;5.45;;;;;;;;;;10252533;28;20083;-68
2022/07/06 08:54:02;;;;;;;12.90;5.00;;;;;;;;;;10251020;28;20054;-68
2022/07/06 08:59:01;;;;;;;11.35;5.50;;;;;;;;;;10253971;28;20088;-68
2022/07/06 09:04:01;;;;;;;8.60;5.65;;;;;;;;;;10252179;28;20079;-68
2022/07/06 09:09:04;;;;;;;6.55;4.80;;;;;;;;;;10247134;28;20045;-68
2022/07/06 09:14:02;;;;;;;5.97;5.47;;;;;;;;;;10252412;28;20083;-68
2022/07/06 09:19:01;;;;;;;6.88;5.18;;;;;;;;;;10251677;28;20207;-68
2022/07/06 09:24:00;;;;;;;6.13;5.47;;;;;;;;;;10251523;28;20503;-69
2022/07/06 09:29:00;;;;;;;7.10;5.30;;;;;;;;;;10252169;28;20053;-67
2022/07/06 09:33:59;;;;;;;8.77;6.25;;;;;;;;;;10252885;28;20076;-68
2022/07/06 09:38:58;;;;;;;6.80;6.10;;;;;;;;;;10250971;28;20498;-68
2022/07/06 09:43:58;;;;;;;11.52;6.53;;;;;;;;;;10250798;28;20052;-69
2022/07/06 09:49:00;;;;;;;10.68;6.15;;;;;;;;;;10249945;28;20080;-68
2022/07/06 09:53:59;;;;;;;7.30;6.10;;;;;;;;;;10251565;28;20495;-68
2022/07/06 09:58:57;;;;;;;7.00;5.85;;;;;;;;;;10250461;28;20083;-69
2022/07/06 10:04:02;;;;;;;8.30;5.95;;;;;;;;;;10250165;28;20089;-68
2022/07/06 10:09:00;;;;;;;7.32;6.35;;;;;;;;;;10249810;28;20069;-69
2022/07/06 10:13:58;;;;;;;8.30;6.45;;;;;;;;;;10250144;28;20081;-68
2022/07/06 10:18:57;;;;;;;6.10;5.13;;;;;;;;;;10249416;28;20084;-68
2022/07/06 10:23:59;;;;;;;11.77;5.60;;;;;;;;;;10249064;28;20084;-68
2022/07/06 10:28:59;;;;;;;6.37;5.63;;;;;;;;;;10248719;28;20069;-68
2022/07/06 10:33:58;;;;;;;5.85;5.22;;;;;;;;;;10248590;28;20077;-68
2022/07/06 10:41:02;;;;;;;14.52;4.82;;;;;;;;;;10248978;28;20341;-69
2022/07/06 10:44:17;;;;;;;8.10;5.78;;;;;;;;;;10248043;28;20077;-69
2022/07/06 10:49:16;;;;;;;6.90;5.18;;;;;;;;;;10248188;28;20060;-69
2022/07/06 10:54:39;;;;;;;6.45;5.85;;;;;;;;;;10248414;28;20083;-70
2022/07/06 10:59:38;;;;;;;5.18;4.78;;;;;;;;;;10248099;28;20069;-69
2022/07/06 11:04:38;;;;;;;7.55;4.90;;;;;;;;;;10247732;28;20072;-69
2022/07/06 11:09:38;;;;;;;7.30;4.95;;;;;;;;;;10235317;28;20069;-69
2022/07/06 11:14:37;;;;;;;7.13;5.57;;;;;;;;;;10233562;28;20081;-69
2022/07/06 11:19:36;;;;;;;12.15;4.97;;;;;;;;;;10233189;28;20045;-69
2022/07/06 11:24:35;;;;;;;6.85;5.03;;;;;;;;;;10245103;28;20073;-69
2022/07/06 11:29:36;;;;;;;9.75;4.85;;;;;;;;;;10247811;28;20073;-69
2022/07/06 11:34:35;;;;;;;5.55;4.60;;;;;;;;;;10247768;28;20069;-69
2022/07/06 11:39:34;;;;;;;8.07;4.93;;;;;;;;;;10247969;28;20481;-69
2022/07/06 11:44:33;;;;;;;7.78;3.95;;;;;;;;;;10246785;28;20076;-68
2022/07/06 11:49:34;;;;;;;5.05;4.45;;;;;;;;;;10246753;28;20100;-68
2022/07/06 11:54:33;;;;;;;6.10;4.00;;;;;;;;;;10247797;28;20504;-69
2022/07/06 11:59:32;;;;;;;6.97;3.97;;;;;;;;;;10246606;28;20049;-69
2022/07/06 12:04:32;;;;;;;5.72;4.15;;;;;;;;;;10255239;28;20422;-68
2022/07/06 12:09:31;;;;;;;7.72;4.50;;;;;;;;;;10249498;28;20046;-68
2022/07/06 12:14:30;;;;;;;4.70;4.22;;;;;;;;;;10252913;28;20514;-68
2022/07/06 12:19:28;;;;;;;8.25;4.03;;;;;;;;;;10255256;28;20080;-68
2022/07/06 12:24:30;;;;;;;6.10;4.15;;;;;;;;;;10253781;28;20081;-68
2022/07/06 12:29:28;;;;;;;5.75;4.00;;;;;;;;;;10253584;28;20061;-69
2022/07/06 12:34:27;;;;;;;4.53;4.15;;;;;;;;;;10253378;28;20068;-69
2022/07/06 12:39:27;;;;;;;6.72;3.90;;;;;;;;;;10253458;28;20069;-68
2022/07/06 12:44:26;;;;;;;6.38;3.90;;;;;;;;;;10253095;28;20073;-69
2022/07/06 12:49:25;;;;;;;8.60;4.30;;;;;;;;;;10253948;28;20076;-69
2022/07/06 12:54:23;;;;;;;5.00;4.28;;;;;;;;;;10253006;28;20085;-69
2022/07/06 12:59:22;;;;;;;5.75;4.00;;;;;;;;;;10251194;28;20053;-68
2022/07/06 13:04:22;;;;;;;5.97;3.95;;;;;;;;;;10248613;28;20049;-68
2022/07/06 13:09:20;;;;;;;7.65;5.15;;;;;;;;;;10253719;28;20096;-68
2022/07/06 13:14:19;;;;;;;11.05;4.68;;;;;;;;;;10238686;28;20080;-69
2022/07/06 13:19:17;;;;;;;6.78;4.78;;;;;;;;;;10233019;28;20046;-70
2022/07/06 13:24:17;;;;;;;7.18;4.40;;;;;;;;;;10238212;28;20057;-69
2022/07/06 13:29:15;;;;;;;4.65;3.85;;;;;;;;;;10252314;28;20115;-69
2022/07/06 13:34:14;;;;;;;7.07;4.38;;;;;;;;;;10251001;28;20073;-69
2022/07/06 13:39:12;;;;;;;7.80;5.50;;;;;;;;;;10251685;28;20061;-69
2022/07/06 13:44:12;;;;;;;7.22;4.70;;;;;;;;;;10250698;28;20065;-69
2022/07/06 13:49:12;;;;;;;6.53;4.60;;;;;;;;;;10250972;28;20550;-69
2022/07/06 13:54:10;;;;;;;10.75;4.40;;;;;;;;;;10250969;28;20467;-69
2022/07/06 13:59:09;;;;;;;7.53;4.50;;;;;;;;;;10248873;28;20053;-68
2022/07/06 14:04:08;;;;;;;8.65;4.32;;;;;;;;;;10250095;28;20053;-69
2022/07/06 14:09:06;;;;;;;11.20;5.30;;;;;;;;;;10248381;28;20046;-68
2022/07/06 14:14:09;;;;;;;6.32;5.45;;;;;;;;;;10249311;28;20046;-69
2022/07/06 14:19:09;;;;;;;7.38;4.88;;;;;;;;;;10250048;28;20042;-70
2022/07/06 14:24:08;;;;;;;7.70;5.28;;;;;;;;;;10248366;28;20049;-69
2022/07/06 14:29:07;;;;;;;5.95;5.45;;;;;;;;;;10248294;28;20041;-69
2022/07/06 14:34:06;;;;;;;5.10;4.70;;;;;;;;;;10249295;28;20085;-68
2022/07/06 14:39:06;;;;;;;9.45;4.78;;;;;;;;;;10247878;28;20084;-69
2022/07/06 14:44:04;;;;;;;9.30;5.10;;;;;;;;;;10235899;28;20038;-69
2022/07/06 14:49:03;;;;;;;6.03;5.47;;;;;;;;;;10236957;28;20049;-68
2022/07/06 14:54:01;;;;;;;7.00;5.22;;;;;;;;;;10235720;28;20074;-68
2022/07/06 14:59:00;;;;;;;7.40;6.68;;;;;;;;;;10248181;28;20069;-69
2022/07/06 15:04:19;;;;;;;8.55;7.75;;;;;;;;;;10235506;28;20049;-69
2022/07/06 15:09:17;;;;;;;7.78;7.03;;;;;;;;;;10235333;28;20045;-69
2022/07/06 15:14:17;;;;;;;9.45;7.93;;;;;;;;;;10234921;28;20077;-69
2022/07/06 15:19:16;;;;;;;14.85;8.25;;;;;;;;;;10244462;28;20072;-69
2022/07/06 15:24:14;;;;;;;9.93;7.07;;;;;;;;;;10246396;28;20500;-68
2022/07/06 15:29:13;;;;;;;9.65;6.78;;;;;;;;;;10247890;28;20681;-68
2022/07/06 15:34:12;;;;;;;8.52;7.45;;;;;;;;;;10246407;28;20089;-68
2022/07/06 15:39:11;;;;;;;8.77;8.07;;;;;;;;;;10239153;28;20042;-68
2022/07/06 15:44:09;;;;;;;9.35;8.55;;;;;;;;;;10247012;28;20069;-69
2022/07/06 15:49:07;;;;;;;9.23;8.32;;;;;;;;;;10247547;28;20087;-69
2022/07/06 15:54:07;;;;;;;13.30;8.88;;;;;;;;;;10246556;28;20107;-68
2022/07/06 15:59:05;;;;;;;12.63;9.23;;;;;;;;;;10246537;28;20430;-68
2022/07/06 16:04:04;;;;;;;9.02;8.25;;;;;;;;;;10243757;28;20068;-68
2022/07/06 16:09:02;;;;;;;10.63;9.30;;;;;;;;;;10246613;28;20077;-68
2022/07/06 16:14:02;;;;;;;9.85;8.95;;;;;;;;;;10247142;28;20451;-68
2022/07/06 16:19:00;;;;;;;9.80;8.43;;;;;;;;;;10247304;28;20073;-66
2022/07/06 16:23:59;;;;;;;11.68;9.45;;;;;;;;;;10246952;28;20131;-68
2022/07/06 16:28:57;;;;;;;10.88;9.25;;;;;;;;;;10235360;28;20080;-68
2022/07/06 16:33:57;;;;;;;11.27;9.57;;;;;;;;;;10238646;28;20077;-68
2022/07/06 16:38:55;;;;;;;12.70;9.85;;;;;;;;;;10231656;28;20064;-68
2022/07/06 16:43:54;;;;;;;8.68;7.88;;;;;;;;;;10235500;28;20080;-67
2022/07/06 16:48:52;;;;;;;9.52;8.43;;;;;;;;;;10239305;28;20069;-69
2022/07/06 16:53:52;;;;;;;9.70;8.15;;;;;;;;;;10242783;28;20068;-68
2022/07/06 16:58:50;;;;;;;12.20;7.80;;;;;;;;;;10243473;28;20077;-64
2022/07/06 17:03:55;;;;;;;;;;;;;;;;;;10245436;28;20081;-65
2022/07/06 17:08:55;;;;;;;8.35;5.32;;;;;;;;;;10242580;28;19960;-64
2022/07/06 17:13:54;;;;;;;4.85;4.35;;;;;;;;;;10251019;28;20084;-64
2022/07/06 17:18:52;;;;;;;7.78;5.07;;;;;;;;;;10249188;28;20069;-65
2022/07/06 17:23:50;;;;;;;6.57;5.03;;;;;;;;;;10238515;28;20079;-64
2022/07/06 17:28:50;;;;;;;9.85;5.57;;;;;;;;;;10238143;28;20471;-67
2022/07/06 17:33:48;;;;;;;14.07;5.47;;;;;;;;;;10240684;28;20095;-66
2022/07/06 17:38:47;;;;;;;9.15;5.47;;;;;;;;;;10236750;28;20073;-65
2022/07/06 17:43:45;;;;;;;6.90;4.93;;;;;;;;;;10236980;28;20498;-65
2022/07/06 17:48:48;;;;;;;9.30;5.47;;;;;;;;;;10241597;28;20065;-65
2022/07/06 17:53:46;;;;;;;8.80;5.95;;;;;;;;;;10241858;28;20100;-65
2022/07/06 17:58:44;;;;;;;5.57;5.07;;;;;;;;;;10240702;28;20092;-64
2022/07/06 18:03:42;;;;;;;7.68;5.43;;;;;;;;;;10241479;28;20452;-63
2022/07/06 18:08:43;;;;;;;10.30;5.10;;;;;;;;;;10234247;28;20091;-64
2022/07/06 18:13:42;;;;;;;7.57;5.47;;;;;;;;;;10239572;28;20092;-64
2022/07/06 18:18:40;;;;;;;8.07;6.22;;;;;;;;;;10242843;28;20076;-64
2022/07/06 18:23:38;;;;;;;7.07;5.50;;;;;;;;;;10239977;28;20549;-65
2022/07/06 18:28:38;;;;;;;8.43;7.22;;;;;;;;;;10240343;28;20080;-65
2022/07/06 18:33:36;;;;;;;8.32;5.40;;;;;;;;;;10237927;28;20538;-65
2022/07/06 18:38:35;;;;;;;12.35;7.43;;;;;;;;;;10235034;28;20083;-65
2022/07/06 18:43:33;;;;;;;9.98;5.43;;;;;;;;;;10230306;28;20068;-64
2022/07/06 18:48:33;;;;;;;16.45;6.47;;;;;;;;;;10237037;28;20073;-65
2022/07/06 18:53:31;;;;;;;11.40;5.95;;;;;;;;;;10231136;28;20125;-65
2022/07/06 18:58:31;;;;;;;8.60;7.65;;;;;;;;;;10232889;28;20079;-64
2022/07/06 19:03:29;;;;;;;7.22;6.15;;;;;;;;;;10231870;28;20455;-65
2022/07/06 19:08:29;;;;;;;9.02;6.60;;;;;;;;;;10230647;28;20467;-65
2022/07/06 19:13:27;;;;;;;7.13;5.95;;;;;;;;;;10235657;28;20077;-65
2022/07/06 19:18:26;;;;;;;7.50;6.63;;;;;;;;;;10236419;28;20084;-66
2022/07/06 19:23:25;;;;;;;10.23;7.43;;;;;;;;;;10237811;28;20080;-66
2022/07/06 19:28:26;;;;;;;7.82;7.03;;;;;;;;;;10239991;28;20081;-65
2022/07/06 19:33:25;;;;;;;8.35;7.32;;;;;;;;;;10240432;28;20076;-65
2022/07/06 19:38:24;;;;;;;7.25;6.60;;;;;;;;;;10234910;28;20080;-65
2022/07/06 19:43:22;;;;;;;8.18;6.82;;;;;;;;;;10234845;28;20072;-65
2022/07/06 19:48:22;;;;;;;7.53;7.03;;;;;;;;;;10237974;28;20061;-65
2022/07/06 19:53:22;;;;;;;7.82;6.97;;;;;;;;;;10233733;28;20553;-65
2022/07/06 19:58:21;;;;;;;7.05;6.45;;;;;;;;;;10234799;28;20474;-64
2022/07/06 20:03:20;;;;;;;7.43;6.82;;;;;;;;;;10238655;28;20069;-64
2022/07/06 20:08:19;;;;;;;7.97;7.20;;;;;;;;;;10241676;28;20066;-65
2022/07/06 20:13:18;;;;;;;9.40;7.65;;;;;;;;;;10240723;28;20061;-65
2022/07/06 20:18:17;;;;;;;8.00;7.40;;;;;;;;;;10242029;28;20080;-64
2022/07/06 20:23:15;;;;;;;8.23;7.32;;;;;;;;;;10246442;28;20080;-64
2022/07/06 20:28:15;;;;;;;7.45;6.75;;;;;;;;;;10242961;28;20053;-64
2022/07/06 20:33:13;;;;;;;8.38;7.57;;;;;;;;;;10240239;28;20076;-67
2022/07/06 20:38:12;;;;;;;8.38;7.57;;;;;;;;;;10238785;28;20076;-64
2022/07/06 20:43:10;;;;;;;7.22;6.57;;;;;;;;;;10247615;28;20526;-64
2022/07/06 20:48:25;;;;;;;8.10;7.28;;;;;;;;;;10246629;28;20299;-64
2022/07/06 20:53:24;;;;;;;8.57;7.72;;;;;;;;;;10242627;28;20471;-64
2022/07/06 20:58:22;;;;;;;9.75;6.97;;;;;;;;;;10247640;28;20445;-64
2022/07/06 21:03:20;;;;;;;8.10;6.95;;;;;;;;;;10246333;28;20439;-64
2022/07/06 21:08:27;;;;;;;7.50;6.90;;;;;;;;;;10241982;28;20483;-63
2022/07/06 21:13:25;;;;;;;7.10;6.50;;;;;;;;;;10237250;28;20072;-64
2022/07/06 21:18:24;;;;;;;9.50;6.97;;;;;;;;;;10236324;28;20486;-64
2022/07/06 21:23:22;;;;;;;6.68;6.15;;;;;;;;;;10237292;28;20527;-63
2022/07/06 21:28:22;;;;;;;6.80;6.20;;;;;;;;;;10240064;28;20459;-63
2022/07/06 21:33:22;;;;;;;6.35;5.85;;;;;;;;;;10232837;28;20452;-63
2022/07/06 21:38:21;;;;;;;7.63;6.93;;;;;;;;;;10247997;28;20077;-64
2022/07/06 21:43:19;;;;;;;11.02;7.10;;;;;;;;;;10249566;28;20080;-66
2022/07/06 21:48:19;;;;;;;6.82;6.30;;;;;;;;;;10249400;28;20073;-65
2022/07/06 21:53:17;;;;;;;7.35;6.65;;;;;;;;;;10246273;28;20494;-65
2022/07/06 21:58:15;;;;;;;6.93;6.20;;;;;;;;;;10245213;28;20073;-65
2022/07/06 22:03:14;;;;;;;6.03;5.47;;;;;;;;;;10238724;28;20070;-64
2022/07/06 22:08:14;;;;;;;5.93;5.40;;;;;;;;;;10243084;28;20072;-65
2022/07/06 22:13:41;;;;;;;5.88;5.38;;;;;;;;;;10249315;28;20068;-65
2022/07/06 22:18:30;;;;;;;6.95;5.72;;;;;;;;;;10248321;28;20083;-65
2022/07/06 22:23:30;;;;;;;5.15;4.55;;;;;;;;;;10226787;28;20508;-65
2022/07/06 22:28:28;;;;;;;5.93;5.32;;;;;;;;;;10240204;28;20068;-65
2022/07/06 22:33:26;;;;;;;7.57;4.30;;;;;;;;;;10244400;28;20065;-65
2022/07/06 22:38:25;;;;;;;4.95;4.50;;;;;;;;;;10240400;28;20080;-64
2022/07/06 22:43:25;;;;;;;4.28;3.97;;;;;;;;;;10236251;28;20077;-65
2022/07/06 22:48:24;;;;;;;5.15;3.88;;;;;;;;;;10229105;28;20491;-64
2022/07/06 22:53:23;;;;;;;4.15;3.85;;;;;;;;;;10225463;28;20069;-65
2022/07/06 22:58:21;;;;;;;4.65;3.95;;;;;;;;;;10246554;28;20073;-64
2022/07/06 23:03:21;;;;;;;3.95;3.63;;;;;;;;;;10241239;28;20069;-65
2022/07/06 23:08:20;;;;;;;5.28;3.58;;;;;;;;;;10250517;28;20456;-65
2022/07/06 23:13:18;;;;;;;4.85;3.53;;;;;;;;;;10234975;28;20045;-64
2022/07/06 23:18:16;;;;;;;3.65;3.35;;;;;;;;;;10230630;28;20073;-66
2022/07/06 23:23:16;;;;;;;4.18;3.88;;;;;;;;;;10234471;28;20100;-65
2022/07/06 23:28:14;;;;;;;4.80;4.40;;;;;;;;;;10244757;28;20056;-64
2022/07/06 23:33:13;;;;;;;5.32;4.28;;;;;;;;;;10246536;28;20069;-65
2022/07/06 23:38:11;;;;;;;5.32;3.95;;;;;;;;;;10247020;28;20084;-64
2022/07/06 23:43:11;;;;;;;3.67;3.38;;;;;;;;;;10245871;28;20045;-65
2022/07/06 23:48:09;;;;;;;4.72;4.25;;;;;;;;;;10246560;28;20495;-64
2022/07/06 23:53:07;;;;;;;6.95;4.78;;;;;;;;;;10246806;28;20084;-64
2022/07/06 23:58:05;;;;;;;4.82;3.92;;;;;;;;;;10245079;28;20087;-64
